Polk, PA (16342)

3:15 PM EDT on May 22, 2015 (GMT -0400)
Venango Regional | | Change Station
CLOSE
Current Station
Airport
Location: Franklin,
Elevation: 1539 ft
Nearby Weather Stations
Active Advisory: Freeze Warning

Elev 1539 ft 41.38 °N, 79.86 °W | Updated 20 minutes ago

Clear
Clear
59 °F
Feels Like 59 °F
N
10
Wind Variable Wind from NW
Gusts 26 mph

Today
High -- | Low -- °F
--% Chance of Precip.
Yesterday
High -- | Low -- °F
Precip. -- in
5:55 AM 8:38 PM
Waxing Crescent, 23% visible
Pressure 30.16 in
Visibility 10.0 miles
Clouds Clear
Dew Point 27 °F
Humidity 29%
Rainfall 0.03 in
Snow Depth Not available.
UV 10 out of 12
Pollen 8.90 out of 12
Air Quality Not available.
Flu Activity Sporadic
METAR KFKL 221855Z AUTO 31009G23KT 10SM CLR 15/M03 A3016 RMK AO1

More Conditions Fewer Conditions

Pressure 30.16 in
Visibility 10.0 miles
Clouds Clear
Dew Point 27 °F
Humidity 29%
Rainfall 0.03 in
Snow Depth Not available.
UV 10 out of 12
Pollen 8.90 out of 12
Air Quality Not available.
Flu Activity Sporadic
METAR KFKL 221855Z AUTO 31009G23KT 10SM CLR 15/M03 A3016 RMK AO1

More Conditions Fewer Conditions

10-Day Weather Forecast

Almanac

Astronomy

May. 22, 2015 Rise Set
Actual Time
Civil Twilight
Nautical Twilight
Astronomical Twilight
Moon
Length of Visible Light
Length of Day
Tomorrow will be .
, % of the Moon is Illuminated

Today's Extremes

State Highs State Lows

Community

WunderPhotos

Upload Photos

1,823,279 photos uploaded!

WunderBlogs® & News

Nearby

Air Quality

  Air Quality AQ Index Pollutant
Not available.

Snow Depth

Station Depth Elevation

Earthquake Activity

City Distance Mag. Time & Date
Minimum magnitude displayed is 2.5.

Coastal Water Temperatures

Place Temperature

Stations

Nearby Weather Stations

Station Location Temp. Windchill Dew Point Humidity Wind Precip. Elev Updated Type
                   
Freeze Warning
Statement as of 2:41 PM EDT on May 22, 2015

... Freeze warning remains in effect from midnight tonight to 9 am
EDT Saturday...

* temperatures... as low as 30 degrees.

* Timing... coldest minimum temperatures will occur before
sunrise Saturday morning.

* Impacts... unprotected outdoor plants will likely be damaged or
killed.

Precautionary/preparedness actions...

A freeze warning means sub-freezing temperatures are imminent or
highly likely. These conditions will kill crops and other
sensitive vegetation.